createdAt,value
2019-01-24T00:00:25.944Z,46.20
2019-01-24T00:02:56.984Z,46.20
2019-01-24T00:05:28.019Z,46.20
2019-01-24T00:07:59.139Z,46.20
2019-01-24T00:10:30.296Z,46.20
2019-01-24T00:13:02.942Z,46.20
2019-01-24T00:15:34.745Z,46.10
2019-01-24T00:18:06.292Z,46.10
2019-01-24T00:20:37.373Z,46.20
2019-01-24T00:23:08.494Z,46.20
2019-01-24T00:25:39.612Z,46.20
2019-01-24T00:28:10.852Z,46.20
2019-01-24T00:30:42.029Z,46.30
2019-01-24T00:33:13.302Z,46.20
2019-01-24T00:35:44.608Z,46.30
2019-01-24T00:38:15.670Z,46.20
2019-01-24T00:40:46.592Z,46.60
2019-01-24T00:43:17.670Z,46.10
2019-01-24T00:45:48.887Z,46.00
2019-01-24T00:48:20.020Z,46.10
2019-01-24T00:50:51.230Z,46.00
2019-01-24T00:53:22.432Z,46.00
2019-01-24T00:55:53.657Z,46.00
2019-01-24T00:58:24.880Z,45.90
2019-01-24T01:00:56.112Z,46.00
2019-01-24T01:03:27.205Z,46.00
2019-01-24T01:05:58.373Z,46.00
2019-01-24T01:08:29.390Z,46.00
2019-01-24T01:11:00.370Z,46.00
2019-01-24T01:13:31.366Z,46.50
2019-01-24T01:16:02.321Z,46.00
2019-01-24T01:18:33.604Z,46.10
2019-01-24T01:21:04.731Z,46.10
2019-01-24T01:23:36.046Z,46.10
2019-01-24T01:26:07.061Z,46.20
2019-01-24T01:28:38.071Z,46.30
2019-01-24T01:31:09.180Z,46.20
2019-01-24T01:33:40.176Z,46.00
2019-01-24T01:36:11.035Z,46.10
2019-01-24T01:38:42.076Z,46.10
2019-01-24T01:41:13.650Z,46.20
2019-01-24T01:43:44.869Z,46.10
2019-01-24T01:46:15.953Z,46.20
2019-01-24T01:48:47.026Z,46.20
2019-01-24T01:51:18.032Z,46.20
2019-01-24T01:53:49.080Z,46.30
2019-01-24T01:56:19.950Z,46.30
2019-01-24T01:58:50.987Z,46.40
2019-01-24T02:01:22.044Z,46.30
2019-01-24T02:03:53.054Z,46.30
2019-01-24T02:06:24.119Z,46.30
2019-01-24T02:08:55.260Z,46.40
2019-01-24T02:11:26.313Z,46.30
2019-01-24T02:13:57.557Z,46.30
2019-01-24T02:16:28.647Z,46.30
2019-01-24T02:18:59.831Z,46.20
2019-01-24T02:21:31.282Z,46.20
2019-01-24T02:24:02.658Z,46.10
2019-01-24T02:26:33.983Z,46.10
2019-01-24T02:29:04.997Z,46.10
2019-01-24T02:31:36.201Z,46.10
2019-01-24T02:34:07.263Z,46.10
2019-01-24T02:36:38.454Z,46.10
2019-01-24T02:39:10.239Z,46.20
2019-01-24T02:41:41.280Z,46.10
2019-01-24T02:44:12.578Z,46.10
2019-01-24T02:46:43.763Z,46.10
2019-01-24T02:49:14.795Z,46.20
2019-01-24T02:51:45.863Z,46.20
2019-01-24T02:54:16.929Z,46.30
2019-01-24T02:56:48.025Z,46.20
2019-01-24T02:59:19.066Z,46.30
2019-01-24T03:01:50.019Z,46.40
2019-01-24T03:04:21.083Z,46.30
2019-01-24T03:06:52.000Z,46.40
2019-01-24T03:09:23.102Z,46.30
2019-01-24T03:11:54.171Z,46.30
2019-01-24T03:14:25.212Z,46.40
2019-01-24T03:16:56.370Z,46.40
2019-01-24T03:19:27.683Z,46.40
2019-01-24T03:21:58.714Z,46.40
2019-01-24T03:24:30.035Z,46.30
2019-01-24T03:27:01.174Z,46.30
2019-01-24T03:29:32.168Z,46.30
2019-01-24T03:32:03.264Z,46.40
2019-01-24T03:34:34.388Z,46.20
2019-01-24T03:37:05.558Z,46.30
2019-01-24T03:39:36.754Z,46.30
2019-01-24T03:42:07.751Z,46.40
2019-01-24T03:44:38.880Z,46.30
2019-01-24T03:47:09.967Z,46.40
2019-01-24T03:49:40.835Z,46.30
2019-01-24T03:52:11.773Z,46.30
2019-01-24T03:54:42.771Z,46.30
2019-01-24T03:57:14.034Z,46.30
2019-01-24T03:59:45.103Z,46.30
2019-01-24T04:02:16.115Z,46.30
2019-01-24T04:04:47.241Z,46.30
2019-01-24T04:07:18.019Z,46.20
2019-01-24T04:09:49.060Z,46.20
2019-01-24T04:12:20.113Z,46.30
2019-01-24T04:14:51.357Z,46.20
2019-01-24T04:17:22.114Z,46.20
2019-01-24T04:19:53.176Z,46.20
2019-01-24T04:22:24.368Z,46.20
2019-01-24T04:24:55.393Z,46.20
2019-01-24T04:27:26.480Z,46.30
2019-01-24T04:29:57.588Z,46.40
2019-01-24T04:32:28.867Z,46.50
2019-01-24T04:35:00.218Z,46.40
2019-01-24T04:37:31.258Z,46.50
2019-01-24T04:40:02.176Z,46.40
2019-01-24T04:42:33.012Z,46.50
2019-01-24T04:45:04.162Z,46.40
2019-01-24T04:47:35.151Z,46.40
2019-01-24T04:50:06.531Z,46.40
2019-01-24T04:52:37.414Z,46.50
2019-01-24T04:55:10.059Z,46.50
2019-01-24T04:57:41.022Z,46.50
2019-01-24T05:00:19.352Z,46.50
2019-01-24T05:02:50.415Z,46.50
2019-01-24T05:05:27.511Z,46.50
2019-01-24T05:07:54.340Z,46.50
2019-01-24T05:10:25.536Z,46.50
2019-01-24T05:12:56.670Z,46.40
2019-01-24T05:15:28.808Z,46.50
2019-01-24T05:18:00.149Z,46.50
2019-01-24T05:20:31.069Z,46.40
2019-01-24T05:23:02.445Z,46.30
2019-01-24T05:25:33.656Z,46.30
2019-01-24T05:28:04.768Z,46.20
2019-01-24T05:30:35.699Z,46.20
2019-01-24T05:33:06.754Z,46.20
2019-01-24T05:35:37.874Z,46.30
2019-01-24T05:38:08.933Z,46.30
2019-01-24T05:40:39.880Z,46.20
2019-01-24T05:43:11.046Z,45.70
2019-01-24T05:45:42.177Z,46.20
2019-01-24T05:48:13.244Z,46.20
2019-01-24T05:50:44.110Z,46.30
2019-01-24T05:53:15.304Z,46.30
2019-01-24T05:55:46.293Z,46.30
2019-01-24T05:58:17.161Z,46.30
2019-01-24T06:00:48.230Z,46.90
2019-01-24T06:03:19.348Z,46.50
2019-01-24T06:05:50.451Z,47.90
2019-01-24T06:08:21.848Z,48.30
2019-01-24T06:10:52.966Z,47.60
2019-01-24T06:13:23.991Z,47.90
2019-01-24T06:15:55.014Z,53.90
2019-01-24T06:18:26.164Z,53.00
2019-01-24T06:20:57.409Z,53.40
2019-01-24T06:23:28.534Z,51.70
2019-01-24T06:25:59.740Z,51.60
2019-01-24T06:28:30.985Z,51.30
2019-01-24T06:31:02.005Z,49.60
2019-01-24T06:33:33.084Z,48.30
2019-01-24T06:36:03.967Z,47.70
2019-01-24T06:38:35.005Z,47.70
2019-01-24T06:41:05.869Z,47.70
2019-01-24T06:43:36.940Z,48.30
2019-01-24T06:46:08.094Z,48.30
2019-01-24T06:48:39.269Z,47.70
2019-01-24T06:51:10.018Z,47.30
2019-01-24T06:53:41.029Z,47.80
2019-01-24T06:56:12.086Z,47.50
2019-01-24T06:58:43.186Z,46.80
2019-01-24T07:01:14.169Z,46.50
2019-01-24T07:03:45.147Z,46.40
2019-01-24T07:06:16.342Z,45.50
2019-01-24T07:08:47.375Z,43.90
2019-01-24T07:11:19.242Z,44.50
2019-01-24T07:13:50.469Z,44.90
2019-01-24T07:16:21.684Z,45.20
2019-01-24T07:18:53.815Z,45.60
2019-01-24T07:21:25.110Z,45.90
2019-01-24T07:23:55.931Z,46.20
2019-01-24T07:26:27.005Z,46.40
2019-01-24T07:28:58.036Z,46.50
2019-01-24T07:31:29.239Z,46.80
2019-01-24T07:34:00.372Z,47.00
2019-01-24T07:36:31.491Z,47.30
2019-01-24T07:39:02.820Z,47.50
2019-01-24T07:41:34.039Z,48.10
2019-01-24T07:44:05.187Z,47.80
2019-01-24T07:46:36.303Z,47.90
2019-01-24T07:49:07.527Z,48.30
2019-01-24T07:51:38.763Z,48.30
2019-01-24T07:54:10.091Z,48.50
2019-01-24T07:56:41.157Z,48.60
2019-01-24T07:59:12.483Z,48.50
2019-01-24T08:01:43.647Z,48.60
2019-01-24T08:04:14.745Z,49.20
2019-01-24T08:06:45.793Z,52.50
2019-01-24T08:09:16.875Z,51.30
2019-01-24T08:11:48.189Z,51.40
2019-01-24T08:14:19.417Z,50.60
2019-01-24T08:16:50.212Z,50.20
2019-01-24T08:19:21.329Z,50.30
2019-01-24T08:21:52.425Z,50.70
2019-01-24T08:24:23.501Z,50.60
2019-01-24T08:26:54.565Z,49.40
2019-01-24T08:29:25.634Z,47.90
2019-01-24T08:31:56.637Z,44.70
2019-01-24T08:34:27.876Z,41.90
2019-01-24T08:36:58.936Z,40.80
2019-01-24T08:39:30.185Z,39.50
2019-01-24T08:42:01.337Z,41.10
2019-01-24T08:44:32.590Z,35.70
2019-01-24T08:47:03.618Z,31.80
2019-01-24T08:49:34.656Z,30.80
2019-01-24T08:52:05.813Z,30.00
2019-01-24T08:54:36.901Z,31.00
2019-01-24T08:57:08.431Z,30.60
2019-01-24T08:59:39.513Z,31.30
2019-01-24T09:02:10.611Z,32.10
2019-01-24T09:04:41.828Z,32.90
2019-01-24T09:07:13.414Z,33.40
2019-01-24T09:09:44.566Z,33.80
2019-01-24T09:12:15.710Z,34.90
2019-01-24T09:14:46.869Z,34.50
2019-01-24T09:17:18.058Z,34.80
2019-01-24T09:19:49.199Z,35.10
2019-01-24T09:22:20.397Z,35.40
2019-01-24T09:24:51.746Z,35.70
2019-01-24T09:27:24.475Z,35.70
2019-01-24T09:29:55.641Z,36.00
2019-01-24T09:32:26.734Z,36.30
2019-01-24T09:34:57.959Z,36.50
2019-01-24T09:37:29.215Z,36.70
2019-01-24T09:40:00.522Z,36.80
2019-01-24T09:42:31.721Z,37.10
2019-01-24T09:45:02.864Z,37.20
2019-01-24T09:47:34.055Z,37.40
2019-01-24T09:50:05.938Z,37.60
2019-01-24T09:52:37.162Z,37.80
2019-01-24T09:55:08.627Z,38.10
2019-01-24T09:57:39.656Z,38.30
2019-01-24T10:00:24.058Z,38.30
2019-01-24T10:02:55.412Z,38.50
2019-01-24T10:05:26.513Z,38.70
2019-01-24T10:07:57.549Z,38.90
2019-01-24T10:10:28.659Z,39.10
2019-01-24T10:12:59.838Z,39.20
2019-01-24T10:15:30.854Z,39.70
2019-01-24T10:18:02.238Z,40.20
2019-01-24T10:20:33.638Z,40.30
2019-01-24T10:23:04.668Z,40.40
2019-01-24T10:25:42.115Z,40.50
2019-01-24T10:28:13.277Z,40.60
2019-01-24T10:30:44.326Z,40.70
2019-01-24T10:33:15.676Z,40.90
2019-01-24T10:35:46.629Z,41.00
2019-01-24T10:38:17.648Z,41.10
2019-01-24T10:40:48.629Z,41.30
2019-01-24T10:43:19.829Z,41.40
2019-01-24T10:45:50.818Z,41.50
2019-01-24T10:48:22.176Z,41.70
2019-01-24T10:50:53.260Z,41.90
2019-01-24T10:53:24.315Z,41.90
2019-01-24T10:55:55.408Z,42.10
2019-01-24T10:58:26.663Z,42.40
2019-01-24T11:00:57.833Z,42.20
2019-01-24T11:03:28.986Z,42.30
2019-01-24T11:06:00.269Z,42.20
2019-01-24T11:08:31.288Z,42.50
2019-01-24T11:11:02.307Z,42.60
2019-01-24T11:13:33.212Z,42.60
2019-01-24T11:16:04.072Z,42.90
2019-01-24T11:18:34.953Z,43.10
2019-01-24T11:21:06.090Z,42.60
2019-01-24T11:23:36.874Z,42.80
2019-01-24T11:26:08.030Z,43.10
2019-01-24T11:28:38.698Z,43.40
2019-01-24T11:31:09.863Z,43.70
2019-01-24T11:33:41.144Z,43.30
2019-01-24T11:36:12.405Z,43.20
2019-01-24T11:38:43.459Z,43.10
2019-01-24T11:41:14.520Z,43.00
2019-01-24T11:43:46.270Z,43.30
2019-01-24T11:46:17.515Z,43.00
2019-01-24T11:48:48.730Z,42.90
2019-01-24T11:51:20.081Z,42.80
2019-01-24T11:53:53.164Z,42.20
2019-01-24T11:56:24.838Z,42.00
2019-01-24T11:58:56.430Z,41.90
2019-01-24T12:01:27.611Z,41.90
2019-01-24T12:03:59.161Z,41.80
2019-01-24T12:06:30.376Z,42.10
2019-01-24T12:09:01.728Z,42.20
2019-01-24T12:11:33.140Z,42.20
2019-01-24T12:14:04.577Z,42.20
2019-01-24T12:16:37.385Z,42.20
2019-01-24T12:19:08.605Z,42.40
2019-01-24T12:21:39.947Z,42.60
2019-01-24T12:24:11.267Z,42.70
2019-01-24T12:26:42.570Z,42.90
2019-01-24T12:29:13.763Z,43.20
2019-01-24T12:31:46.772Z,43.20
2019-01-24T12:34:18.491Z,43.20
2019-01-24T12:36:50.368Z,43.30
2019-01-24T12:39:21.608Z,43.50
2019-01-24T12:41:52.702Z,43.40
2019-01-24T12:44:23.946Z,43.50
2019-01-24T12:46:55.370Z,43.40
2019-01-24T12:49:27.297Z,43.50
2019-01-24T12:51:58.461Z,43.50
2019-01-24T12:54:29.705Z,43.50
2019-01-24T12:57:00.979Z,44.10
2019-01-24T12:59:32.718Z,43.70
2019-01-24T13:02:04.050Z,43.70
2019-01-24T13:04:36.082Z,43.60
2019-01-24T13:07:07.953Z,43.70
2019-01-24T13:09:38.844Z,43.70
2019-01-24T13:12:09.584Z,43.50
2019-01-24T13:14:41.717Z,43.40
2019-01-24T13:17:13.063Z,43.60
2019-01-24T13:19:44.129Z,43.90
2019-01-24T13:22:15.440Z,44.10
2019-01-24T13:24:46.920Z,44.20
2019-01-24T13:27:18.415Z,44.30
2019-01-24T13:29:50.134Z,44.50
2019-01-24T13:32:21.268Z,44.50
2019-01-24T13:34:52.439Z,44.50
2019-01-24T13:37:25.956Z,44.40
2019-01-24T13:39:56.608Z,44.40
2019-01-24T13:42:27.863Z,44.40
2019-01-24T13:44:59.105Z,44.50
2019-01-24T13:47:30.317Z,44.50
2019-01-24T13:50:02.982Z,44.80
2019-01-24T13:52:33.992Z,45.10
2019-01-24T13:55:05.432Z,44.40
2019-01-24T13:57:38.544Z,44.80
2019-01-24T14:00:16.949Z,44.90
2019-01-24T14:02:50.549Z,44.70
2019-01-24T14:05:21.553Z,44.60
2019-01-24T14:07:52.835Z,44.50
2019-01-24T14:10:24.047Z,44.50
2019-01-24T14:12:55.266Z,44.60
2019-01-24T14:15:26.367Z,44.70
2019-01-24T14:17:57.362Z,44.80
2019-01-24T14:20:28.561Z,44.80
2019-01-24T14:22:59.625Z,44.80
2019-01-24T14:25:30.625Z,44.90
2019-01-24T14:28:01.677Z,44.80
2019-01-24T14:30:32.906Z,44.70
2019-01-24T14:33:04.377Z,44.80
2019-01-24T14:35:35.460Z,44.90
2019-01-24T14:38:07.936Z,44.70
2019-01-24T14:40:39.179Z,44.90
2019-01-24T14:43:10.439Z,44.90
2019-01-24T14:45:41.765Z,45.00
2019-01-24T14:48:12.775Z,45.00
2019-01-24T14:50:43.857Z,45.00
2019-01-24T14:53:14.856Z,45.00
2019-01-24T14:55:45.982Z,45.00
2019-01-24T14:58:17.085Z,44.60
2019-01-24T15:01:12.474Z,44.70
2019-01-24T15:03:43.687Z,44.90
2019-01-24T15:06:15.129Z,45.10
2019-01-24T15:08:46.128Z,45.40
2019-01-24T15:11:17.200Z,45.60
2019-01-24T15:13:48.232Z,45.90
2019-01-24T15:16:19.423Z,45.70
2019-01-24T15:18:50.814Z,45.60
2019-01-24T15:21:22.150Z,45.20
2019-01-24T15:23:53.350Z,45.10
2019-01-24T15:26:24.422Z,45.10
2019-01-24T15:28:55.741Z,44.90
2019-01-24T15:31:26.969Z,44.70
2019-01-24T15:33:58.491Z,44.70
2019-01-24T15:36:29.636Z,45.30
2019-01-24T15:39:00.963Z,44.90
2019-01-24T15:41:32.045Z,44.90
2019-01-24T15:44:03.434Z,45.30
2019-01-24T15:46:34.589Z,45.60
2019-01-24T15:49:05.688Z,45.40
2019-01-24T15:51:36.636Z,45.40
2019-01-24T15:54:07.736Z,45.10
2019-01-24T15:56:38.922Z,45.10
2019-01-24T15:59:09.811Z,45.10
2019-01-24T16:01:40.934Z,45.20
2019-01-24T16:04:12.144Z,45.20
2019-01-24T16:06:43.216Z,45.20
2019-01-24T16:09:15.568Z,45.20
2019-01-24T16:11:46.293Z,45.20
2019-01-24T16:14:17.639Z,45.30
2019-01-24T16:16:48.858Z,45.10
2019-01-24T16:19:19.868Z,45.20
2019-01-24T16:21:51.166Z,45.10
2019-01-24T16:24:22.601Z,45.30
2019-01-24T16:26:53.851Z,46.10
2019-01-24T16:29:25.057Z,46.30
2019-01-24T16:31:56.225Z,46.20
2019-01-24T16:34:27.385Z,46.60
2019-01-24T16:36:58.533Z,46.30
2019-01-24T16:39:29.690Z,53.00
2019-01-24T16:42:01.000Z,50.40
2019-01-24T16:44:32.122Z,50.70
2019-01-24T16:47:03.222Z,50.00
2019-01-24T16:49:34.227Z,49.30
2019-01-24T16:52:05.460Z,47.80
2019-01-24T16:54:36.600Z,46.90
2019-01-24T16:57:07.844Z,46.60
2019-01-24T16:59:39.060Z,46.80
2019-01-24T17:02:10.284Z,46.60
2019-01-24T17:04:41.396Z,46.20
2019-01-24T17:07:12.730Z,46.20
2019-01-24T17:09:44.025Z,45.90
2019-01-24T17:12:15.235Z,45.80
2019-01-24T17:14:46.143Z,47.70
2019-01-24T17:17:18.357Z,46.80
2019-01-24T17:19:49.618Z,46.30
2019-01-24T17:22:20.839Z,46.60
2019-01-24T17:24:52.054Z,46.90
2019-01-24T17:27:23.326Z,47.00
2019-01-24T17:29:54.626Z,46.60
2019-01-24T17:32:25.975Z,46.10
2019-01-24T17:34:56.960Z,46.20
2019-01-24T17:37:27.951Z,46.80
2019-01-24T17:39:59.032Z,47.90
2019-01-24T17:42:30.175Z,47.80
2019-01-24T17:45:01.332Z,48.40
2019-01-24T17:47:32.451Z,49.40
2019-01-24T17:50:03.680Z,49.70
2019-01-24T17:52:34.840Z,49.40
2019-01-24T17:55:08.507Z,50.40
2019-01-24T17:57:39.807Z,50.70
2019-01-24T18:00:16.267Z,50.40
2019-01-24T18:02:47.482Z,49.80
2019-01-24T18:05:18.672Z,49.00
2019-01-24T18:07:49.811Z,49.30
2019-01-24T18:10:23.736Z,49.40
2019-01-24T18:12:54.924Z,49.10
2019-01-24T18:15:28.694Z,48.90
2019-01-24T18:17:59.859Z,50.00
2019-01-24T18:20:33.222Z,50.80
2019-01-24T18:23:04.478Z,53.50
2019-01-24T18:25:35.542Z,57.30
2019-01-24T18:28:08.028Z,59.20
2019-01-24T18:30:39.179Z,58.00
2019-01-24T18:33:10.473Z,57.30
2019-01-24T18:35:41.695Z,56.90
2019-01-24T18:38:13.122Z,54.40
2019-01-24T18:40:44.734Z,53.80
2019-01-24T18:43:28.402Z,53.50
2019-01-24T18:46:02.189Z,53.00
2019-01-24T18:48:33.353Z,52.80
2019-01-24T18:51:04.531Z,52.30
2019-01-24T18:53:35.536Z,52.00
2019-01-24T18:56:06.946Z,51.80
2019-01-24T18:58:38.318Z,51.50
2019-01-24T19:01:09.567Z,51.40
2019-01-24T19:03:41.354Z,52.00
2019-01-24T19:06:13.182Z,51.80
2019-01-24T19:08:47.794Z,52.30
2019-01-24T19:11:21.926Z,51.40
2019-01-24T19:13:53.518Z,51.20
2019-01-24T19:16:40.780Z,51.80
2019-01-24T19:19:14.702Z,51.30
2019-01-24T19:21:46.287Z,52.10
2019-01-24T19:24:18.009Z,51.30
2019-01-24T19:26:52.075Z,50.90
2019-01-24T19:29:28.983Z,51.10
2019-01-24T19:32:04.504Z,50.30
2019-01-24T19:34:39.731Z,51.60
2019-01-24T19:37:19.431Z,52.30
2019-01-24T19:39:52.435Z,51.90
2019-01-24T19:42:23.781Z,52.60
2019-01-24T19:44:54.949Z,51.50
2019-01-24T19:47:27.739Z,51.10
2019-01-24T19:50:00.255Z,50.40
2019-01-24T19:52:31.491Z,51.40
2019-01-24T19:55:02.497Z,50.80
2019-01-24T19:57:33.602Z,51.00
2019-01-24T20:00:04.661Z,50.10
2019-01-24T20:02:35.837Z,49.40
2019-01-24T20:05:07.768Z,49.10
2019-01-24T20:07:38.908Z,49.20
2019-01-24T20:10:13.822Z,49.30
2019-01-24T20:12:44.928Z,49.70
2019-01-24T20:15:21.525Z,49.30
2019-01-24T20:17:52.963Z,49.30
2019-01-24T20:20:24.075Z,49.90
2019-01-24T20:22:55.365Z,49.40
2019-01-24T20:25:28.652Z,49.70
2019-01-24T20:28:00.367Z,50.30
2019-01-24T20:30:32.906Z,49.60
2019-01-24T20:33:04.353Z,49.50
2019-01-24T20:35:51.784Z,49.30
2019-01-24T20:38:23.391Z,49.20
2019-01-24T20:40:54.976Z,49.10
2019-01-24T20:43:26.986Z,49.20
2019-01-24T20:45:58.482Z,49.10
2019-01-24T20:48:29.947Z,49.10
2019-01-24T20:51:02.025Z,49.10
2019-01-24T20:53:34.380Z,49.10
2019-01-24T20:56:06.563Z,49.20
2019-01-24T20:58:38.712Z,49.10
2019-01-24T21:01:10.760Z,49.00
2019-01-24T21:03:43.513Z,48.90
2019-01-24T21:06:15.533Z,48.90
2019-01-24T21:08:47.801Z,49.00
2019-01-24T21:11:20.073Z,48.90
2019-01-24T21:13:51.397Z,48.80
2019-01-24T21:16:22.535Z,49.30
2019-01-24T21:19:40.202Z,48.60
2019-01-24T21:22:11.367Z,48.40
2019-01-24T21:24:42.494Z,48.50
2019-01-24T21:27:13.493Z,48.40
2019-01-24T21:29:44.711Z,48.40
2019-01-24T21:32:15.876Z,48.20
2019-01-24T21:34:47.334Z,48.20
2019-01-24T21:37:18.603Z,48.20
2019-01-24T21:39:49.803Z,48.20
2019-01-24T21:42:20.942Z,48.10
2019-01-24T21:44:51.994Z,48.00
2019-01-24T21:47:23.216Z,48.10
2019-01-24T21:49:54.503Z,47.90
2019-01-24T21:52:25.908Z,48.00
2019-01-24T21:54:58.254Z,48.00
2019-01-24T21:57:29.878Z,47.90
2019-01-24T22:00:21.780Z,48.00
2019-01-24T22:02:53.444Z,48.10
2019-01-24T22:05:25.018Z,48.20
2019-01-24T22:07:56.287Z,48.30
2019-01-24T22:10:30.474Z,48.10
2019-01-24T22:13:01.831Z,48.10
2019-01-24T22:15:33.136Z,48.10
2019-01-24T22:18:04.064Z,48.20
2019-01-24T22:20:35.309Z,48.20
2019-01-24T22:23:06.583Z,48.20
2019-01-24T22:25:38.367Z,48.50
2019-01-24T22:28:09.774Z,48.60
2019-01-24T22:30:52.218Z,48.70
2019-01-24T22:33:23.432Z,48.80
2019-01-24T22:35:54.476Z,48.80
2019-01-24T22:38:25.538Z,48.80
2019-01-24T22:40:56.657Z,48.80
2019-01-24T22:43:27.802Z,48.70
2019-01-24T22:45:59.009Z,48.80
2019-01-24T22:48:30.234Z,48.70
2019-01-24T22:51:01.432Z,48.80
2019-01-24T22:53:32.285Z,48.90
2019-01-24T22:56:03.598Z,48.70
2019-01-24T22:58:34.701Z,48.80
2019-01-24T23:01:21.235Z,48.80
2019-01-24T23:04:02.204Z,48.70
2019-01-24T23:06:33.334Z,48.60
2019-01-24T23:09:05.877Z,48.60
2019-01-24T23:11:37.024Z,48.70
2019-01-24T23:14:08.325Z,48.60
2019-01-24T23:16:39.710Z,48.40
2019-01-24T23:19:10.899Z,48.50
2019-01-24T23:21:42.257Z,48.50
2019-01-24T23:24:13.600Z,48.50
2019-01-24T23:26:45.066Z,48.60
2019-01-24T23:29:16.227Z,48.60
2019-01-24T23:31:47.350Z,48.60
2019-01-24T23:34:18.662Z,48.60
2019-01-24T23:36:49.669Z,48.70
2019-01-24T23:39:20.827Z,48.60
2019-01-24T23:41:52.066Z,48.50
2019-01-24T23:44:23.292Z,48.50
2019-01-24T23:46:54.790Z,48.60
2019-01-24T23:49:26.219Z,48.60
2019-01-24T23:51:57.467Z,48.60
2019-01-24T23:54:28.807Z,48.50
2019-01-24T23:57:00.021Z,48.60
2019-01-24T23:59:31.415Z,48.60
